Saint Kitts and Nevis

Airport
ICAO code: 
TKPK
Summary
ICAO Region: 
CARSAM
Location: 
Basseterre, Saint Kitts,
Coordinates: 
Aerial View: 
17° 18' 40.317" N, 62° 43' 7.321" W
Metar
Observation
TKPK 171500Z 10013KT 9999 FEW022 28/19 Q1017
Station
Golden Rock
Date/Time
2022-01-17 15:00:00
Wind direction
100°
Wind speed
13 kts
Lowest cloud amount
few clouds
Temperature
28°C
Dew point
19°C
Humidity
58%
QNH
1017 hPa
Weather condition
n/a

Description

Robert L. Bradshaw International Airport is an international airport located just northeast of Basseterre, on the island of Saint Kitts, serving the nation of Saint Kitts and Nevis.

Climatology

Tropical Monsoon climate (Köppen climate classification Am) - monthly mean temperatures above 18°C in every month of the year and features wet and dry seasons. A tropical monsoon climate typically features less pronounced dry seasons than a tropical savanna climate and see less variance in temperatures during the course of the year. The driest month nearly always occurs at or soon after the "winter" solstice.

Runways

Designator Length Width Surface Rops
7/25 2317 45 ASP Yes/Yes
Airport map: 
Aerial View: 

Accidents and Serious Incidents at or in the vicinity of TKPK

SKYbrary Partners:

Safety knowledge contributed by: